Flight Track Log - Related Links

Times and Time Zones

All times are in EDT time to prevent confusion due to time zone crossing. See the N40BZ flight status page for this flight to view local times or setup timezone preferences in your user account.

Time Position Orientation Groundspeed Altitude Reporting Facility
EDT Latitude Longitude Course Direction KTS MPH feet Rate Location/Type
Tue 05:30:42 PM 40.8167 -72.6333 159° South 114 131 500  Level New York TRACON
Tue 05:31:42 PM 40.7833 -72.6167 159° South 120 138 1,300 750 Climbing New York TRACON
Tue 05:32:42 PM 40.8167 -72.5833 37° Northeast 143 165 2,000 800 Climbing New York TRACON
Tue 05:33:42 PM 40.8500 -72.6000 339° North 130 150 2,900 905 Climbing New York TRACON
Tue 05:34:48 PM 40.8833 -72.6000 360° North 124 143 3,900 550 Climbing New York TRACON
Tue 05:35:42 PM 40.9167 -72.6167 339° North 148 170 4,000 50 Climbing New York TRACON
Tue 05:36:48 PM 40.9667 -72.6333 346° North 161 185 4,000  Level New York TRACON
Tue 05:37:48 PM 41.0000 -72.6667 323° Northwest 162 186 4,000  Level New York TRACON
Tue 05:38:42 PM 41.0333 -72.7000 323° Northwest 152 175 4,000  Level New York TRACON
Tue 05:39:48 PM 41.0667 -72.7333 323° Northwest 146 168 4,000 143 Level New York TRACON
Tue 05:40:48 PM 41.1000 -72.7500 339° North 140 161 4,300 400 Climbing New York TRACON
Tue 05:41:48 PM 41.1333 -72.7833 323° Northwest 166 191 4,800 632 Climbing New York TRACON
Tue 05:42:42 PM 41.1167 -72.8167 236° Southwest 122 140 5,500 632 Climbing New York TRACON
Tue 05:43:42 PM 41.0833 -72.8333 201° Southwest 134 154 6,000 263 Climbing New York TRACON
Tue 05:44:36 PM 41.0500 -72.8667 217° Southwest 158 182 6,000 368 Level New York TRACON
Tue 05:45:36 PM 41.0167 -72.9000 217° Southwest 141 162 6,700 667 Climbing New York TRACON
Tue 05:46:42 PM 40.9833 -72.9333 217° Southwest 130 150 7,400 714 Climbing New York TRACON
Tue 05:47:42 PM 40.9500 -72.9667 217° Southwest 128 147 8,200 700 Climbing New York TRACON
Tue 05:48:42 PM 40.9333 -72.9833 217° Southwest 125 144 8,800 650 Climbing New York TRACON
Tue 05:49:42 PM 40.9000 -73.0167 217° Southwest 128 147 9,500 684 Climbing New York TRACON
Tue 05:50:36 PM 40.8833 -73.0500 237° Southwest 127 146 10,100 650 Climbing New York TRACON
Tue 05:51:42 PM 40.8500 -73.0833 271° West 121 139 10,800 650 Climbing New York TRACON
Tue 05:52:36 PM 40.8333 -73.1167 237° Southwest 122 140 11,400 632 Climbing New York TRACON
Tue 05:53:36 PM 40.8167 -73.1667 246° West 124 143 12,000 550 Climbing New York TRACON
Tue 05:54:36 PM 40.8333 -73.2000 303° West 135 155 12,500 250 Climbing New York TRACON
Tue 05:55:36 PM 40.8500 -73.2500 294° West 168 193 12,500 333 Level New York TRACON
Tue 05:56:42 PM 40.8833 -73.3000 311° West 151 174 13,200 500 Climbing New York TRACON
Tue 05:57:36 PM 40.9167 -73.3333 323° Northwest 147 169 13,500 -250 Climbing New York TRACON
Tue 05:58:42 PM 40.9500 -73.3833 311° West 195 224 12,700 -476 Descending New York TRACON
Tue 05:59:42 PM 40.9833 -73.4500 304° West 185 213 12,500 -100 Descending New York TRACON
Tue 06:00:42 PM 41.0000 -73.5167 288° West 178 205 12,500  Level New York TRACON
Tue 06:01:36 PM 41.0167 -73.5667 294° West 174 200 12,500  Level New York TRACON
Tue 06:02:36 PM 41.0500 -73.6167 311° West 168 193 12,500  Level New York TRACON
Tue 06:03:36 PM 41.0667 -73.6833 288° West 178 205 12,500  Level New York TRACON
Tue 06:04:36 PM 41.0833 -73.7500 288° West 176 203 12,500  Level New York TRACON
Tue 06:05:36 PM 41.1000 -73.8000 294° West 177 204 12,500  Level New York TRACON
Tue 06:06:42 PM 41.1167 -73.8667 288° West 174 200 12,500 48 Level New York TRACON
Tue 06:07:42 PM 41.1333 -73.9333 288° West 175 201 12,600 50 Climbing New York TRACON
Tue 06:08:42 PM 41.1500 -73.9833 294° West 177 204 12,600 -50 Level New York TRACON
Tue 06:09:42 PM 41.1833 -74.0500 304° West 178 205 12,500 -50 Descending New York TRACON
Tue 06:10:42 PM 41.2000 -74.1000 294° West 176 203 12,500 50 Level New York TRACON
Tue 06:11:42 PM 41.2167 -74.1667 288° West 178 205 12,600 158 Climbing New York TRACON
Tue 06:12:36 PM 41.2333 -74.2167 294° West 170 196 12,800 -53 Climbing New York TRACON
Tue 06:13:36 PM 41.2667 -74.2833 304° West 185 213 12,500 -95 Descending New York TRACON
Tue 06:14:42 PM 41.2833 -74.3333 294° West 178 205 12,600 50 Climbing New York TRACON
Tue 06:15:36 PM 41.3167 -74.3833 312° West 177 204 12,600 -53 Level New York TRACON
Tue 06:16:36 PM 41.3333 -74.4500 288° West 179 206 12,500 -50 Descending New York TRACON
Tue 06:17:36 PM 41.3500 -74.5000 294° West 176 203 12,500 50 Level New York TRACON
Tue 06:18:36 PM 41.3833 -74.5667 304° West 174 200 12,600 52 Climbing New York TRACON
Tue 06:19:31 PM 41.3969 -74.6125 292° West 176 203 12,600 -52 Level New York Center
Tue 06:20:32 PM 41.4219 -74.6719 299° West 176 203 12,500 -50 Descending New York Center
Tue 06:21:32 PM 41.4431 -74.7286 296° West 182 209 12,500  Level New York Center
Tue 06:22:33 PM 41.4661 -74.7853 299° West 177 204 12,500  Level New York Center
Tue 06:23:31 PM 41.4894 -74.8392 300° West 177 204 12,500  Level New York Center
Tue 06:24:31 PM 41.5122 -74.8989 297° West 177 204 12,500  Level New York Center
Tue 06:25:31 PM 41.5325 -74.9167 327° Northwest 182 209 12,500  Level New York Center
Tue 06:26:32 PM 41.5581 -75.0125 290° West 152 175 12,500  Level New York Center
Tue 06:27:33 PM 41.5831 -75.0722 299° West 176 203 12,500  Level New York Center
Tue 06:28:30 PM 41.6061 -75.1292 298° West 176 203 12,500  Level New York Center
Tue 06:29:31 PM 41.6247 -75.1833 295° West 176 203 12,500  Level New York Center
Tue 06:30:32 PM 41.6494 -75.2486 297° West 176 203 12,500  Level New York Center
Tue 06:31:32 PM 41.6744 -75.3058 300° West 176 203 12,500  Level New York Center
Tue 06:32:33 PM 41.6972 -75.3631 298° West 176 203 12,500  Level New York Center
Tue 06:33:30 PM 41.7181 -75.4172 297° West 176 203 12,500  Level New York Center
Tue 06:34:31 PM 41.7386 -75.4742 296° West 176 203 12,500  Level New York Center
Tue 06:35:32 PM 41.7631 -75.5372 297° West 176 203 12,500  Level New York Center
Tue 06:36:32 PM 41.7858 -75.5972 297° West 176 203 12,500 50 Level New York Center
Tue 06:37:31 PM 41.8064 -75.6489 298° West 176 203 12,600 50 Climbing New York Center
Tue 06:38:31 PM 41.8328 -75.7147 298° West 176 203 12,600  Level New York Center
Tue 06:39:32 PM 41.8533 -75.7719 296° West 176 203 12,600  Level New York Center
Tue 06:40:30 PM 41.8722 -75.8208 297° West 176 203 12,600  Level New York Center
Tue 06:41:30 PM 41.8986 -75.8869 298° West 176 203 12,600 -150 Level New York Center
Tue 06:42:30 PM 41.9208 -75.9472 296° West 176 203 12,300 -246 Descending New York Center
Tue 06:43:32 PM 41.9433 -76.0075 297° West 181 208 12,100 -98 Descending New York Center
Tue 06:44:32 PM 41.9639 -76.0592 298° West 181 208 12,100  Level New York Center
Tue 06:45:30 PM 41.9842 -76.1194 294° West 181 208 12,100  Level New York Center
Tue 06:46:30 PM 42.0103 -76.1831 299° West 181 208 12,100  Level New York Center
Tue 06:47:31 PM 42.0325 -76.2433 296° West 181 208 12,100  Level New York Center
Tue 06:48:31 PM 42.0547 -76.3011 297° West 181 208 12,100  Level New York Center
Tue 06:49:33 PM 42.0792 -76.3619 298° West 181 208 12,100 -50 Level New York Center
Tue 06:50:30 PM 42.1014 -76.4197 297° West 181 208 12,000 -51 Descending New York Center
Tue 06:51:30 PM 42.1214 -76.4800 294° West 181 208 12,000  Level New York Center
Tue 06:52:31 PM 42.1456 -76.5381 299° West 181 208 12,000  Level New York Center
Tue 06:53:32 PM 42.1678 -76.5989 296° West 181 208 12,000  Level New York Center
Tue 06:54:32 PM 42.1897 -76.6567 297° West 181 208 12,000  Level New York Center
Tue 06:55:33 PM 42.2117 -76.7175 296° West 181 208 12,000  Level New York Center
Tue 06:56:32 PM 42.2369 -76.7828 298° West 180 207 12,000  Level Cleveland Center
Tue 06:57:32 PM 42.2597 -76.8403 298° West 180 207 12,000  Level Cleveland Center
Tue 06:58:32 PM 42.2825 -76.9008 297° West 180 207 12,000  Level Cleveland Center
Tue 06:59:32 PM 42.3033 -76.9614 295° West 180 207 12,000  Level Cleveland Center
Tue 07:00:32 PM 42.3258 -77.0189 298° West 174 200 12,000  Level Cleveland Center
Tue 07:01:32 PM 42.3464 -77.0769 296° West 174 200 12,000  Level Cleveland Center
Tue 07:02:32 PM 42.3692 -77.1347 298° West 174 200 12,000  Level Cleveland Center
Tue 07:03:32 PM 42.3917 -77.1953 297° West 174 200 12,000  Level Cleveland Center
Tue 07:04:32 PM 42.4122 -77.2561 295° West 174 200 12,000  Level Cleveland Center
Tue 07:05:32 PM 42.4369 -77.3194 298° West 174 200 12,000  Level Cleveland Center
Tue 07:06:32 PM 42.4572 -77.3775 295° West 174 200 12,000  Level Cleveland Center
Tue 07:07:32 PM 42.4800 -77.4383 297° West 174 200 12,000 -50 Level Cleveland Center
Tue 07:08:32 PM 42.5003 -77.4964 295° West 174 200 11,900 -50 Descending Cleveland Center
Tue 07:09:32 PM 42.5225 -77.5544 297° West 168 193 11,900  Level Cleveland Center
Tue 07:10:32 PM 42.5450 -77.6183 296° West 177 204 11,900 -50 Level Cleveland Center
Tue 07:11:32 PM 42.5675 -77.6794 297° West 177 204 11,800 -283 Descending Cleveland Center
Tue 07:12:18 PM 42.5917 -77.7261 305° West 199 229 11,400 -566 Descending Cleveland Center
Tue 07:13:18 PM 42.6242 -77.7811 309° West 203 234 10,800 -537 Descending Cleveland Center
Tue 07:14:32 PM 42.6697 -77.8497 312° West 193 222 10,200 -1,701 Descending Cleveland Center
Tue 07:15:32 PM 42.7108 -77.9186 309° West 206 237 7,000 -650 Descending Cleveland Center
Tue 07:16:32 PM 42.7475 -77.9764 311° West 206 237 8,900 750 Climbing Cleveland Center
Tue 07:17:32 PM 42.7758 -78.0206 311° West 200 230 8,500 -500 Descending Cleveland Center
Tue 07:18:32 PM 42.8167 -78.0783 314° West 200 230 7,900 -600 Descending Cleveland Center
Tue 07:19:32 PM 42.8572 -78.1247 320° Northwest 187 215 7,300 -650 Descending Cleveland Center
Tue 07:20:32 PM 42.9019 -78.1742 321° Northwest 187 215 6,600 -650 Descending Cleveland Center
Tue 07:21:32 PM 42.9383 -78.2181 319° Northwest 181 208 6,000 -588 Descending Cleveland Center
Tue 07:23:56 PM 42.9833 -78.3500 295° West 165 190 4,600 -559 Descending Buffalo TRACON
Tue 07:24:56 PM 43.0000 -78.4167 289° West 166 191 4,100 -619 Descending Buffalo TRACON
Tue 07:26:02 PM 43.0167 -78.4667 295° West 177 204 3,300 -762 Descending Buffalo TRACON
Tue 07:27:02 PM 43.0333 -78.5333 289° West 172 198 2,500 -500 Descending Buffalo TRACON
Tue 07:28:02 PM 43.0333 -78.5833 270° West 136 157 2,300 -105 Descending Buffalo TRACON
Tue 07:28:56 PM 43.0167 -78.6167 236° Southwest 128 147 2,300 -211 Level Buffalo TRACON
Tue 07:29:56 PM 43.0000 -78.6500 236° Southwest 116 133 1,900 -450 Descending Buffalo TRACON
Tue 07:30:56 PM 42.9667 -78.6833 216° Southwest 112 129 1,400 -550 Descending Buffalo TRACON
Tue 07:31:56 PM 42.9500 -78.7167 236° Southwest 112 129 800 -600 Descending Buffalo TRACON
Tue 07:33:00 PM 42.9333 -78.7167 233° Southwest  Level FlightAware Approximate
Tue 07:40:00 PM 42.9404 -78.7306 233° Southwest  Level Estimated

Login

Don't have an account? Register now (free) for customized features, flight alerts, and more!